sensor_id;sensor_type;location;lat;lon;timestamp;P1;durP1;ratioP1;P2;durP2;ratioP2
3597;SDS011;1813;52.016;8.714;2023-04-03T00:01:23;5.77;;;2.73;;
3597;SDS011;1813;52.016;8.714;2023-04-03T00:03:57;5.00;;;2.70;;
3597;SDS011;1813;52.016;8.714;2023-04-03T00:06:32;3.37;;;2.10;;
3597;SDS011;1813;52.016;8.714;2023-04-03T00:09:08;6.87;;;2.27;;
3597;SDS011;1813;52.016;8.714;2023-04-03T00:11:42;8.60;;;2.47;;
3597;SDS011;1813;52.016;8.714;2023-04-03T00:14:16;5.90;;;2.50;;
3597;SDS011;1813;52.016;8.714;2023-04-03T00:16:50;8.10;;;2.33;;
3597;SDS011;1813;52.016;8.714;2023-04-03T00:19:24;4.60;;;2.43;;
3597;SDS011;1813;52.016;8.714;2023-04-03T00:21:58;3.40;;;2.30;;
3597;SDS011;1813;52.016;8.714;2023-04-03T00:24:34;9.63;;;2.43;;
3597;SDS011;1813;52.016;8.714;2023-04-03T00:27:08;5.50;;;2.60;;
3597;SDS011;1813;52.016;8.714;2023-04-03T00:29:42;9.87;;;2.70;;
3597;SDS011;1813;52.016;8.714;2023-04-03T00:32:16;8.83;;;2.60;;
3597;SDS011;1813;52.016;8.714;2023-04-03T00:34:50;7.10;;;2.53;;
3597;SDS011;1813;52.016;8.714;2023-04-03T00:37:24;5.77;;;2.27;;
3597;SDS011;1813;52.016;8.714;2023-04-03T00:40:01;8.77;;;2.27;;
3597;SDS011;1813;52.016;8.714;2023-04-03T00:42:35;4.57;;;2.40;;
3597;SDS011;1813;52.016;8.714;2023-04-03T00:45:26;6.53;;;2.50;;
3597;SDS011;1813;52.016;8.714;2023-04-03T00:48:11;5.37;;;2.30;;
3597;SDS011;1813;52.016;8.714;2023-04-03T00:50:49;5.13;;;2.33;;
3597;SDS011;1813;52.016;8.714;2023-04-03T00:53:25;7.23;;;2.50;;
3597;SDS011;1813;52.016;8.714;2023-04-03T00:56:08;7.40;;;2.60;;
3597;SDS011;1813;52.016;8.714;2023-04-03T00:58:46;8.10;;;2.53;;
3597;SDS011;1813;52.016;8.714;2023-04-03T01:01:24;5.90;;;2.40;;
3597;SDS011;1813;52.016;8.714;2023-04-03T01:04:00;6.70;;;2.73;;
3597;SDS011;1813;52.016;8.714;2023-04-03T01:06:36;6.80;;;2.40;;
3597;SDS011;1813;52.016;8.714;2023-04-03T01:09:12;4.53;;;2.17;;
3597;SDS011;1813;52.016;8.714;2023-04-03T01:11:49;5.57;;;1.90;;
3597;SDS011;1813;52.016;8.714;2023-04-03T01:14:22;6.17;;;2.00;;
3597;SDS011;1813;52.016;8.714;2023-04-03T01:16:56;6.93;;;2.37;;
3597;SDS011;1813;52.016;8.714;2023-04-03T01:19:30;5.87;;;2.70;;
3597;SDS011;1813;52.016;8.714;2023-04-03T01:22:10;6.53;;;2.37;;
3597;SDS011;1813;52.016;8.714;2023-04-03T01:24:52;6.80;;;2.30;;
3597;SDS011;1813;52.016;8.714;2023-04-03T01:27:29;8.03;;;2.50;;
3597;SDS011;1813;52.016;8.714;2023-04-03T01:30:03;5.43;;;2.20;;
3597;SDS011;1813;52.016;8.714;2023-04-03T01:32:43;8.60;;;2.67;;
3597;SDS011;1813;52.016;8.714;2023-04-03T01:35:17;8.57;;;2.30;;
3597;SDS011;1813;52.016;8.714;2023-04-03T01:37:51;6.50;;;2.20;;
3597;SDS011;1813;52.016;8.714;2023-04-03T01:40:25;6.80;;;2.40;;
3597;SDS011;1813;52.016;8.714;2023-04-03T01:42:59;5.97;;;2.20;;
3597;SDS011;1813;52.016;8.714;2023-04-03T01:45:33;8.63;;;2.70;;
3597;SDS011;1813;52.016;8.714;2023-04-03T01:48:09;4.43;;;2.10;;
3597;SDS011;1813;52.016;8.714;2023-04-03T01:50:43;4.93;;;2.03;;
3597;SDS011;1813;52.016;8.714;2023-04-03T01:53:18;5.23;;;2.37;;
3597;SDS011;1813;52.016;8.714;2023-04-03T01:55:52;10.23;;;2.60;;
3597;SDS011;1813;52.016;8.714;2023-04-03T01:58:26;5.63;;;2.23;;
3597;SDS011;1813;52.016;8.714;2023-04-03T02:00:59;5.30;;;2.33;;
3597;SDS011;1813;52.016;8.714;2023-04-03T02:03:36;7.00;;;2.60;;
3597;SDS011;1813;52.016;8.714;2023-04-03T02:06:10;6.77;;;2.20;;
3597;SDS011;1813;52.016;8.714;2023-04-03T02:08:45;5.13;;;2.50;;
3597;SDS011;1813;52.016;8.714;2023-04-03T02:11:19;7.83;;;2.40;;
3597;SDS011;1813;52.016;8.714;2023-04-03T02:13:53;6.53;;;2.63;;
3597;SDS011;1813;52.016;8.714;2023-04-03T02:16:28;5.30;;;2.33;;
3597;SDS011;1813;52.016;8.714;2023-04-03T02:19:04;5.70;;;2.50;;
3597;SDS011;1813;52.016;8.714;2023-04-03T02:21:39;6.17;;;2.60;;
3597;SDS011;1813;52.016;8.714;2023-04-03T02:24:13;7.40;;;2.70;;
3597;SDS011;1813;52.016;8.714;2023-04-03T02:26:47;5.00;;;2.27;;
3597;SDS011;1813;52.016;8.714;2023-04-03T02:29:21;10.37;;;2.57;;
3597;SDS011;1813;52.016;8.714;2023-04-03T02:31:55;7.07;;;2.10;;
3597;SDS011;1813;52.016;8.714;2023-04-03T02:34:32;8.00;;;2.60;;
3597;SDS011;1813;52.016;8.714;2023-04-03T02:37:09;9.80;;;2.37;;
3597;SDS011;1813;52.016;8.714;2023-04-03T02:39:44;8.80;;;2.47;;
3597;SDS011;1813;52.016;8.714;2023-04-03T02:42:18;5.47;;;2.30;;
3597;SDS011;1813;52.016;8.714;2023-04-03T02:44:51;5.80;;;2.30;;
3597;SDS011;1813;52.016;8.714;2023-04-03T02:47:26;4.40;;;2.40;;
3597;SDS011;1813;52.016;8.714;2023-04-03T02:50:03;7.67;;;2.33;;
3597;SDS011;1813;52.016;8.714;2023-04-03T02:52:37;11.17;;;2.43;;
3597;SDS011;1813;52.016;8.714;2023-04-03T02:55:13;4.97;;;2.47;;
3597;SDS011;1813;52.016;8.714;2023-04-03T02:57:49;5.27;;;2.53;;
3597;SDS011;1813;52.016;8.714;2023-04-03T03:00:23;4.90;;;2.30;;
3597;SDS011;1813;52.016;8.714;2023-04-03T03:02:57;7.57;;;2.40;;
3597;SDS011;1813;52.016;8.714;2023-04-03T03:05:34;6.77;;;2.77;;
3597;SDS011;1813;52.016;8.714;2023-04-03T03:08:08;5.40;;;2.30;;
3597;SDS011;1813;52.016;8.714;2023-04-03T03:10:42;6.30;;;2.80;;
3597;SDS011;1813;52.016;8.714;2023-04-03T03:13:17;6.70;;;2.77;;
3597;SDS011;1813;52.016;8.714;2023-04-03T03:15:51;8.17;;;2.60;;
3597;SDS011;1813;52.016;8.714;2023-04-03T03:18:26;4.33;;;2.10;;
3597;SDS011;1813;52.016;8.714;2023-04-03T03:21:02;11.03;;;2.10;;
3597;SDS011;1813;52.016;8.714;2023-04-03T03:23:39;7.10;;;2.40;;
3597;SDS011;1813;52.016;8.714;2023-04-03T03:26:13;16.00;;;2.70;;
3597;SDS011;1813;52.016;8.714;2023-04-03T03:28:47;9.77;;;2.70;;
3597;SDS011;1813;52.016;8.714;2023-04-03T03:31:21;7.20;;;2.70;;
3597;SDS011;1813;52.016;8.714;2023-04-03T03:33:55;5.90;;;2.43;;
3597;SDS011;1813;52.016;8.714;2023-04-03T03:36:32;6.90;;;2.63;;
3597;SDS011;1813;52.016;8.714;2023-04-03T03:39:06;6.43;;;2.40;;
3597;SDS011;1813;52.016;8.714;2023-04-03T03:41:40;5.20;;;2.60;;
3597;SDS011;1813;52.016;8.714;2023-04-03T03:44:15;7.30;;;2.33;;
3597;SDS011;1813;52.016;8.714;2023-04-03T03:46:49;6.20;;;2.70;;
3597;SDS011;1813;52.016;8.714;2023-04-03T03:49:22;9.17;;;2.37;;
3597;SDS011;1813;52.016;8.714;2023-04-03T03:51:59;9.13;;;2.77;;
3597;SDS011;1813;52.016;8.714;2023-04-03T03:54:33;6.70;;;2.37;;
3597;SDS011;1813;52.016;8.714;2023-04-03T03:57:08;9.63;;;2.87;;
3597;SDS011;1813;52.016;8.714;2023-04-03T03:59:41;9.50;;;2.70;;
3597;SDS011;1813;52.016;8.714;2023-04-03T04:02:17;6.00;;;2.50;;
3597;SDS011;1813;52.016;8.714;2023-04-03T04:04:51;7.17;;;2.47;;
3597;SDS011;1813;52.016;8.714;2023-04-03T04:07:28;10.23;;;2.53;;
3597;SDS011;1813;52.016;8.714;2023-04-03T04:10:05;7.10;;;2.70;;
3597;SDS011;1813;52.016;8.714;2023-04-03T04:12:40;12.93;;;2.33;;
3597;SDS011;1813;52.016;8.714;2023-04-03T04:15:14;4.57;;;2.43;;
3597;SDS011;1813;52.016;8.714;2023-04-03T04:17:48;7.40;;;2.70;;
3597;SDS011;1813;52.016;8.714;2023-04-03T04:20:22;7.00;;;3.07;;
3597;SDS011;1813;52.016;8.714;2023-04-03T04:23:00;7.37;;;2.80;;
3597;SDS011;1813;52.016;8.714;2023-04-03T04:25:35;9.93;;;2.43;;
3597;SDS011;1813;52.016;8.714;2023-04-03T04:28:09;8.93;;;2.50;;
3597;SDS011;1813;52.016;8.714;2023-04-03T04:30:44;3.63;;;2.30;;
3597;SDS011;1813;52.016;8.714;2023-04-03T04:33:20;7.63;;;2.50;;
3597;SDS011;1813;52.016;8.714;2023-04-03T04:35:54;8.80;;;2.97;;
3597;SDS011;1813;52.016;8.714;2023-04-03T04:41:09;7.93;;;2.53;;
3597;SDS011;1813;52.016;8.714;2023-04-03T04:43:43;9.93;;;2.50;;
3597;SDS011;1813;52.016;8.714;2023-04-03T04:46:17;5.33;;;2.87;;
3597;SDS011;1813;52.016;8.714;2023-04-03T04:48:57;7.33;;;2.73;;
3597;SDS011;1813;52.016;8.714;2023-04-03T04:51:33;9.63;;;2.77;;
3597;SDS011;1813;52.016;8.714;2023-04-03T04:54:10;8.90;;;2.77;;
3597;SDS011;1813;52.016;8.714;2023-04-03T04:56:44;12.83;;;2.77;;
3597;SDS011;1813;52.016;8.714;2023-04-03T04:59:18;8.10;;;3.03;;
3597;SDS011;1813;52.016;8.714;2023-04-03T05:01:53;7.97;;;2.50;;
3597;SDS011;1813;52.016;8.714;2023-04-03T05:04:27;4.90;;;2.60;;
3597;SDS011;1813;52.016;8.714;2023-04-03T05:07:07;7.27;;;2.63;;
3597;SDS011;1813;52.016;8.714;2023-04-03T05:09:45;11.00;;;2.97;;
3597;SDS011;1813;52.016;8.714;2023-04-03T05:12:20;7.77;;;2.40;;
3597;SDS011;1813;52.016;8.714;2023-04-03T05:15:00;5.90;;;2.47;;
3597;SDS011;1813;52.016;8.714;2023-04-03T05:17:35;6.97;;;2.47;;
3597;SDS011;1813;52.016;8.714;2023-04-03T05:20:10;6.57;;;2.33;;
3597;SDS011;1813;52.016;8.714;2023-04-03T05:22:46;4.60;;;2.57;;
3597;SDS011;1813;52.016;8.714;2023-04-03T05:25:23;9.20;;;2.70;;
3597;SDS011;1813;52.016;8.714;2023-04-03T05:27:57;5.97;;;2.50;;
3597;SDS011;1813;52.016;8.714;2023-04-03T05:30:31;9.57;;;2.47;;
3597;SDS011;1813;52.016;8.714;2023-04-03T05:33:07;11.23;;;2.93;;
3597;SDS011;1813;52.016;8.714;2023-04-03T05:35:48;6.60;;;2.77;;
3597;SDS011;1813;52.016;8.714;2023-04-03T05:38:28;5.90;;;2.40;;
3597;SDS011;1813;52.016;8.714;2023-04-03T05:41:05;5.27;;;2.50;;
3597;SDS011;1813;52.016;8.714;2023-04-03T05:43:39;7.20;;;2.93;;
3597;SDS011;1813;52.016;8.714;2023-04-03T05:46:15;7.60;;;2.90;;
3597;SDS011;1813;52.016;8.714;2023-04-03T05:48:54;6.80;;;2.90;;
3597;SDS011;1813;52.016;8.714;2023-04-03T05:51:34;6.10;;;2.50;;
3597;SDS011;1813;52.016;8.714;2023-04-03T05:54:24;6.33;;;2.40;;
3597;SDS011;1813;52.016;8.714;2023-04-03T05:57:09;6.80;;;2.90;;
3597;SDS011;1813;52.016;8.714;2023-04-03T05:59:44;7.40;;;2.57;;
3597;SDS011;1813;52.016;8.714;2023-04-03T06:02:20;4.47;;;2.50;;
3597;SDS011;1813;52.016;8.714;2023-04-03T06:04:56;5.20;;;2.47;;
3597;SDS011;1813;52.016;8.714;2023-04-03T06:07:30;6.70;;;2.67;;
3597;SDS011;1813;52.016;8.714;2023-04-03T06:10:04;8.70;;;2.90;;
3597;SDS011;1813;52.016;8.714;2023-04-03T06:12:42;8.00;;;2.80;;
3597;SDS011;1813;52.016;8.714;2023-04-03T06:15:16;7.17;;;2.73;;
3597;SDS011;1813;52.016;8.714;2023-04-03T06:17:51;6.27;;;2.37;;
3597;SDS011;1813;52.016;8.714;2023-04-03T06:20:25;8.37;;;2.80;;
3597;SDS011;1813;52.016;8.714;2023-04-03T06:22:59;7.07;;;2.67;;
3597;SDS011;1813;52.016;8.714;2023-04-03T06:25:34;5.87;;;2.60;;
3597;SDS011;1813;52.016;8.714;2023-04-03T06:28:11;6.97;;;2.50;;
3597;SDS011;1813;52.016;8.714;2023-04-03T06:30:45;7.87;;;2.70;;
3597;SDS011;1813;52.016;8.714;2023-04-03T06:33:19;7.70;;;2.20;;
3597;SDS011;1813;52.016;8.714;2023-04-03T06:35:55;9.00;;;2.70;;
3597;SDS011;1813;52.016;8.714;2023-04-03T06:38:31;8.47;;;2.80;;
3597;SDS011;1813;52.016;8.714;2023-04-03T06:41:06;4.60;;;2.30;;
3597;SDS011;1813;52.016;8.714;2023-04-03T06:43:42;6.63;;;2.83;;
3597;SDS011;1813;52.016;8.714;2023-04-03T06:46:16;15.50;;;2.73;;
3597;SDS011;1813;52.016;8.714;2023-04-03T06:48:52;4.83;;;2.20;;
3597;SDS011;1813;52.016;8.714;2023-04-03T06:51:27;4.40;;;2.33;;
3597;SDS011;1813;52.016;8.714;2023-04-03T06:54:02;11.23;;;2.80;;
3597;SDS011;1813;52.016;8.714;2023-04-03T06:56:37;8.57;;;2.50;;
3597;SDS011;1813;52.016;8.714;2023-04-03T06:59:14;4.97;;;2.40;;
3597;SDS011;1813;52.016;8.714;2023-04-03T07:01:48;5.23;;;2.30;;
3597;SDS011;1813;52.016;8.714;2023-04-03T07:04:22;3.77;;;2.40;;
3597;SDS011;1813;52.016;8.714;2023-04-03T07:06:59;4.80;;;2.13;;
3597;SDS011;1813;52.016;8.714;2023-04-03T07:09:34;5.40;;;2.23;;
3597;SDS011;1813;52.016;8.714;2023-04-03T07:12:13;10.13;;;2.43;;
3597;SDS011;1813;52.016;8.714;2023-04-03T07:14:49;7.73;;;2.33;;
3597;SDS011;1813;52.016;8.714;2023-04-03T07:17:23;5.63;;;2.10;;
3597;SDS011;1813;52.016;8.714;2023-04-03T07:19:57;3.47;;;1.97;;
3597;SDS011;1813;52.016;8.714;2023-04-03T07:22:35;7.77;;;2.13;;
3597;SDS011;1813;52.016;8.714;2023-04-03T07:25:09;4.60;;;1.97;;
3597;SDS011;1813;52.016;8.714;2023-04-03T07:27:43;5.37;;;2.00;;
3597;SDS011;1813;52.016;8.714;2023-04-03T07:30:20;6.27;;;2.23;;
3597;SDS011;1813;52.016;8.714;2023-04-03T07:32:54;5.17;;;2.10;;
3597;SDS011;1813;52.016;8.714;2023-04-03T07:35:28;3.77;;;1.80;;
3597;SDS011;1813;52.016;8.714;2023-04-03T07:38:02;6.57;;;2.17;;
3597;SDS011;1813;52.016;8.714;2023-04-03T07:40:38;3.93;;;2.20;;
3597;SDS011;1813;52.016;8.714;2023-04-03T07:43:12;4.63;;;2.00;;
3597;SDS011;1813;52.016;8.714;2023-04-03T07:45:49;7.07;;;1.90;;
3597;SDS011;1813;52.016;8.714;2023-04-03T07:48:24;4.33;;;1.83;;
3597;SDS011;1813;52.016;8.714;2023-04-03T07:50:59;7.73;;;2.20;;
3597;SDS011;1813;52.016;8.714;2023-04-03T07:53:34;4.03;;;1.67;;
3597;SDS011;1813;52.016;8.714;2023-04-03T07:56:08;3.93;;;1.80;;
3597;SDS011;1813;52.016;8.714;2023-04-03T07:58:42;6.43;;;2.13;;
3597;SDS011;1813;52.016;8.714;2023-04-03T08:01:19;4.13;;;1.80;;
3597;SDS011;1813;52.016;8.714;2023-04-03T08:03:54;4.17;;;1.87;;
3597;SDS011;1813;52.016;8.714;2023-04-03T08:06:28;6.50;;;2.50;;
3597;SDS011;1813;52.016;8.714;2023-04-03T08:09:03;4.90;;;2.03;;
3597;SDS011;1813;52.016;8.714;2023-04-03T08:11:38;4.87;;;2.00;;
3597;SDS011;1813;52.016;8.714;2023-04-03T08:14:12;6.20;;;2.00;;
3597;SDS011;1813;52.016;8.714;2023-04-03T08:16:51;2.13;;;1.70;;
3597;SDS011;1813;52.016;8.714;2023-04-03T08:19:25;6.27;;;1.90;;
3597;SDS011;1813;52.016;8.714;2023-04-03T08:21:59;5.27;;;1.83;;
3597;SDS011;1813;52.016;8.714;2023-04-03T08:24:33;5.57;;;2.27;;
3597;SDS011;1813;52.016;8.714;2023-04-03T08:27:07;4.30;;;1.93;;
3597;SDS011;1813;52.016;8.714;2023-04-03T08:29:41;6.27;;;2.17;;
3597;SDS011;1813;52.016;8.714;2023-04-03T08:32:18;7.23;;;1.93;;
3597;SDS011;1813;52.016;8.714;2023-04-03T08:34:52;5.77;;;2.27;;
3597;SDS011;1813;52.016;8.714;2023-04-03T08:37:26;4.97;;;2.00;;
3597;SDS011;1813;52.016;8.714;2023-04-03T08:40:00;3.53;;;1.73;;
3597;SDS011;1813;52.016;8.714;2023-04-03T08:42:36;7.83;;;2.10;;
3597;SDS011;1813;52.016;8.714;2023-04-03T08:45:20;6.73;;;2.30;;
3597;SDS011;1813;52.016;8.714;2023-04-03T08:48:03;4.13;;;1.50;;
3597;SDS011;1813;52.016;8.714;2023-04-03T08:50:40;4.50;;;2.33;;
3597;SDS011;1813;52.016;8.714;2023-04-03T08:53:17;6.27;;;1.87;;
3597;SDS011;1813;52.016;8.714;2023-04-03T08:55:54;4.67;;;2.00;;
3597;SDS011;1813;52.016;8.714;2023-04-03T08:58:29;6.00;;;2.03;;
3597;SDS011;1813;52.016;8.714;2023-04-03T09:01:10;6.27;;;1.70;;
3597;SDS011;1813;52.016;8.714;2023-04-03T09:03:53;4.70;;;1.80;;
3597;SDS011;1813;52.016;8.714;2023-04-03T09:06:28;4.43;;;1.70;;
3597;SDS011;1813;52.016;8.714;2023-04-03T09:09:07;4.60;;;1.83;;
3597;SDS011;1813;52.016;8.714;2023-04-03T09:11:48;5.00;;;2.10;;
3597;SDS011;1813;52.016;8.714;2023-04-03T09:14:29;1.70;;;1.60;;
3597;SDS011;1813;52.016;8.714;2023-04-03T09:17:12;6.20;;;1.97;;
3597;SDS011;1813;52.016;8.714;2023-04-03T09:19:54;6.13;;;1.73;;
3597;SDS011;1813;52.016;8.714;2023-04-03T09:22:32;3.20;;;1.53;;
3597;SDS011;1813;52.016;8.714;2023-04-03T09:25:17;5.40;;;1.90;;
3597;SDS011;1813;52.016;8.714;2023-04-03T09:27:53;7.03;;;2.20;;
3597;SDS011;1813;52.016;8.714;2023-04-03T09:30:28;3.60;;;1.90;;
3597;SDS011;1813;52.016;8.714;2023-04-03T09:33:03;4.30;;;1.73;;
3597;SDS011;1813;52.016;8.714;2023-04-03T09:35:41;5.27;;;2.10;;
3597;SDS011;1813;52.016;8.714;2023-04-03T09:38:16;4.87;;;1.70;;
3597;SDS011;1813;52.016;8.714;2023-04-03T09:41:02;3.97;;;1.50;;
3597;SDS011;1813;52.016;8.714;2023-04-03T09:43:39;2.40;;;1.40;;
3597;SDS011;1813;52.016;8.714;2023-04-03T09:46:25;4.00;;;1.67;;
3597;SDS011;1813;52.016;8.714;2023-04-03T09:49:04;3.90;;;1.97;;
3597;SDS011;1813;52.016;8.714;2023-04-03T09:51:41;5.27;;;1.90;;
3597;SDS011;1813;52.016;8.714;2023-04-03T09:57:08;4.93;;;2.00;;
3597;SDS011;1813;52.016;8.714;2023-04-03T09:59:46;6.23;;;1.63;;
3597;SDS011;1813;52.016;8.714;2023-04-03T10:02:34;5.10;;;2.00;;
3597;SDS011;1813;52.016;8.714;2023-04-03T10:08:15;2.80;;;1.60;;
3597;SDS011;1813;52.016;8.714;2023-04-03T10:11:08;3.10;;;1.60;;
3597;SDS011;1813;52.016;8.714;2023-04-03T10:13:49;4.27;;;1.57;;
3597;SDS011;1813;52.016;8.714;2023-04-03T10:16:31;4.60;;;1.67;;
3597;SDS011;1813;52.016;8.714;2023-04-03T10:19:16;6.87;;;2.33;;
3597;SDS011;1813;52.016;8.714;2023-04-03T10:22:06;1.73;;;1.40;;
3597;SDS011;1813;52.016;8.714;2023-04-03T10:24:56;6.00;;;1.70;;
3597;SDS011;1813;52.016;8.714;2023-04-03T10:27:39;2.43;;;1.60;;
3597;SDS011;1813;52.016;8.714;2023-04-03T10:30:25;4.03;;;1.70;;
3597;SDS011;1813;52.016;8.714;2023-04-03T10:33:08;3.80;;;1.97;;
3597;SDS011;1813;52.016;8.714;2023-04-03T10:36:07;5.33;;;1.90;;
3597;SDS011;1813;52.016;8.714;2023-04-03T10:39:02;3.97;;;1.47;;
3597;SDS011;1813;52.016;8.714;2023-04-03T10:41:50;3.60;;;1.60;;
3597;SDS011;1813;52.016;8.714;2023-04-03T10:44:36;7.57;;;1.70;;
3597;SDS011;1813;52.016;8.714;2023-04-03T10:47:16;4.67;;;1.50;;
3597;SDS011;1813;52.016;8.714;2023-04-03T10:49:56;2.93;;;1.43;;
3597;SDS011;1813;52.016;8.714;2023-04-03T10:52:41;4.03;;;1.70;;
3597;SDS011;1813;52.016;8.714;2023-04-03T10:55:23;3.73;;;1.80;;
3597;SDS011;1813;52.016;8.714;2023-04-03T10:58:08;7.53;;;1.87;;
3597;SDS011;1813;52.016;8.714;2023-04-03T11:00:52;3.57;;;1.63;;
3597;SDS011;1813;52.016;8.714;2023-04-03T11:03:34;2.97;;;1.80;;
3597;SDS011;1813;52.016;8.714;2023-04-03T11:06:12;6.67;;;1.90;;
3597;SDS011;1813;52.016;8.714;2023-04-03T11:08:48;5.53;;;1.40;;
3597;SDS011;1813;52.016;8.714;2023-04-03T11:11:29;5.30;;;2.10;;
3597;SDS011;1813;52.016;8.714;2023-04-03T11:14:13;5.20;;;1.80;;
3597;SDS011;1813;52.016;8.714;2023-04-03T11:16:54;3.23;;;1.70;;
3597;SDS011;1813;52.016;8.714;2023-04-03T11:19:36;3.10;;;1.63;;
3597;SDS011;1813;52.016;8.714;2023-04-03T11:22:16;2.90;;;1.60;;
3597;SDS011;1813;52.016;8.714;2023-04-03T11:24:59;2.03;;;1.50;;
3597;SDS011;1813;52.016;8.714;2023-04-03T11:27:40;3.93;;;1.80;;
3597;SDS011;1813;52.016;8.714;2023-04-03T11:30:20;3.60;;;1.77;;
3597;SDS011;1813;52.016;8.714;2023-04-03T11:36:05;4.83;;;1.80;;
3597;SDS011;1813;52.016;8.714;2023-04-03T11:38:43;3.53;;;1.60;;
3597;SDS011;1813;52.016;8.714;2023-04-03T11:41:25;7.27;;;2.00;;
3597;SDS011;1813;52.016;8.714;2023-04-03T11:44:02;3.80;;;1.80;;
3597;SDS011;1813;52.016;8.714;2023-04-03T11:55:42;4.60;;;1.73;;
3597;SDS011;1813;52.016;8.714;2023-04-03T11:58:28;4.03;;;1.80;;
3597;SDS011;1813;52.016;8.714;2023-04-03T12:01:04;4.10;;;1.70;;
3597;SDS011;1813;52.016;8.714;2023-04-03T12:09:57;6.53;;;1.83;;
3597;SDS011;1813;52.016;8.714;2023-04-03T12:12:34;5.57;;;2.00;;
3597;SDS011;1813;52.016;8.714;2023-04-03T12:15:20;4.03;;;1.77;;
3597;SDS011;1813;52.016;8.714;2023-04-03T12:17:56;5.77;;;1.80;;
3597;SDS011;1813;52.016;8.714;2023-04-03T12:23:30;3.03;;;1.50;;
3597;SDS011;1813;52.016;8.714;2023-04-03T12:26:18;4.40;;;1.67;;
3597;SDS011;1813;52.016;8.714;2023-04-03T12:28:55;4.00;;;1.70;;
3597;SDS011;1813;52.016;8.714;2023-04-03T12:31:36;4.20;;;1.70;;
3597;SDS011;1813;52.016;8.714;2023-04-03T12:34:24;2.30;;;1.50;;
3597;SDS011;1813;52.016;8.714;2023-04-03T12:37:16;3.17;;;1.80;;
3597;SDS011;1813;52.016;8.714;2023-04-03T12:40:07;2.90;;;1.50;;
3597;SDS011;1813;52.016;8.714;2023-04-03T12:43:00;5.77;;;1.47;;
3597;SDS011;1813;52.016;8.714;2023-04-03T12:45:44;3.90;;;2.10;;
3597;SDS011;1813;52.016;8.714;2023-04-03T12:48:25;2.77;;;1.50;;
3597;SDS011;1813;52.016;8.714;2023-04-03T12:51:01;2.97;;;1.50;;
3597;SDS011;1813;52.016;8.714;2023-04-03T12:53:35;3.23;;;1.73;;
3597;SDS011;1813;52.016;8.714;2023-04-03T12:56:22;3.67;;;1.57;;
3597;SDS011;1813;52.016;8.714;2023-04-03T12:59:13;3.47;;;1.83;;
3597;SDS011;1813;52.016;8.714;2023-04-03T13:01:55;3.63;;;1.70;;
3597;SDS011;1813;52.016;8.714;2023-04-03T13:04:31;4.40;;;1.80;;
3597;SDS011;1813;52.016;8.714;2023-04-03T13:07:05;6.03;;;2.10;;
3597;SDS011;1813;52.016;8.714;2023-04-03T13:09:58;3.00;;;1.77;;
3597;SDS011;1813;52.016;8.714;2023-04-03T13:12:44;5.07;;;2.10;;
3597;SDS011;1813;52.016;8.714;2023-04-03T13:15:21;3.00;;;1.63;;
3597;SDS011;1813;52.016;8.714;2023-04-03T13:17:57;2.23;;;1.50;;
3597;SDS011;1813;52.016;8.714;2023-04-03T13:20:32;1.83;;;1.43;;
3597;SDS011;1813;52.016;8.714;2023-04-03T13:23:10;1.77;;;1.60;;
3597;SDS011;1813;52.016;8.714;2023-04-03T13:25:48;3.53;;;1.60;;
3597;SDS011;1813;52.016;8.714;2023-04-03T13:28:26;5.20;;;1.80;;
3597;SDS011;1813;52.016;8.714;2023-04-03T13:31:05;4.80;;;1.97;;
3597;SDS011;1813;52.016;8.714;2023-04-03T13:33:53;3.53;;;1.60;;
3597;SDS011;1813;52.016;8.714;2023-04-03T13:36:30;6.30;;;1.70;;
3597;SDS011;1813;52.016;8.714;2023-04-03T13:39:06;3.70;;;1.80;;
3597;SDS011;1813;52.016;8.714;2023-04-03T13:41:55;2.33;;;1.60;;
3597;SDS011;1813;52.016;8.714;2023-04-03T13:44:35;3.40;;;1.60;;
3597;SDS011;1813;52.016;8.714;2023-04-03T13:47:15;5.53;;;1.80;;
3597;SDS011;1813;52.016;8.714;2023-04-03T13:50:01;3.67;;;1.60;;
3597;SDS011;1813;52.016;8.714;2023-04-03T13:52:40;4.53;;;1.80;;
3597;SDS011;1813;52.016;8.714;2023-04-03T13:55:18;4.93;;;1.70;;
3597;SDS011;1813;52.016;8.714;2023-04-03T13:57:56;2.90;;;1.60;;
3597;SDS011;1813;52.016;8.714;2023-04-03T14:00:36;3.40;;;1.63;;
3597;SDS011;1813;52.016;8.714;2023-04-03T14:03:12;3.53;;;1.60;;
3597;SDS011;1813;52.016;8.714;2023-04-03T14:05:47;3.93;;;1.53;;
3597;SDS011;1813;52.016;8.714;2023-04-03T14:08:21;4.40;;;1.70;;
3597;SDS011;1813;52.016;8.714;2023-04-03T14:10:55;4.40;;;1.70;;
3597;SDS011;1813;52.016;8.714;2023-04-03T14:13:30;2.60;;;1.60;;
3597;SDS011;1813;52.016;8.714;2023-04-03T14:16:07;3.07;;;1.50;;
3597;SDS011;1813;52.016;8.714;2023-04-03T14:18:45;4.57;;;1.90;;
3597;SDS011;1813;52.016;8.714;2023-04-03T14:21:21;4.70;;;1.70;;
3597;SDS011;1813;52.016;8.714;2023-04-03T14:23:56;4.50;;;1.80;;
3597;SDS011;1813;52.016;8.714;2023-04-03T14:26:30;3.17;;;1.70;;
3597;SDS011;1813;52.016;8.714;2023-04-03T14:29:04;3.70;;;1.50;;
3597;SDS011;1813;52.016;8.714;2023-04-03T14:31:41;3.03;;;1.50;;
3597;SDS011;1813;52.016;8.714;2023-04-03T14:34:15;2.80;;;1.80;;
3597;SDS011;1813;52.016;8.714;2023-04-03T14:36:49;3.30;;;1.87;;
3597;SDS011;1813;52.016;8.714;2023-04-03T14:39:24;4.30;;;1.70;;
3597;SDS011;1813;52.016;8.714;2023-04-03T14:41:58;4.57;;;1.70;;
3597;SDS011;1813;52.016;8.714;2023-04-03T14:44:31;3.03;;;1.90;;
3597;SDS011;1813;52.016;8.714;2023-04-03T14:47:10;2.80;;;1.50;;
3597;SDS011;1813;52.016;8.714;2023-04-03T14:49:45;3.03;;;1.73;;
3597;SDS011;1813;52.016;8.714;2023-04-03T14:52:20;2.93;;;1.80;;
3597;SDS011;1813;52.016;8.714;2023-04-03T14:54:55;4.20;;;1.70;;
3597;SDS011;1813;52.016;8.714;2023-04-03T14:57:30;3.73;;;1.80;;
3597;SDS011;1813;52.016;8.714;2023-04-03T15:00:07;2.70;;;1.57;;
3597;SDS011;1813;52.016;8.714;2023-04-03T15:02:48;2.60;;;1.60;;
3597;SDS011;1813;52.016;8.714;2023-04-03T15:05:23;7.57;;;2.10;;
3597;SDS011;1813;52.016;8.714;2023-04-03T15:07:57;8.57;;;1.93;;
3597;SDS011;1813;52.016;8.714;2023-04-03T15:10:31;3.27;;;1.67;;
3597;SDS011;1813;52.016;8.714;2023-04-03T15:13:05;4.20;;;1.80;;
3597;SDS011;1813;52.016;8.714;2023-04-03T15:15:40;3.33;;;1.70;;
3597;SDS011;1813;52.016;8.714;2023-04-03T15:18:18;2.20;;;1.67;;
3597;SDS011;1813;52.016;8.714;2023-04-03T15:20:56;3.80;;;1.90;;
3597;SDS011;1813;52.016;8.714;2023-04-03T15:23:30;3.73;;;1.90;;
3597;SDS011;1813;52.016;8.714;2023-04-03T15:26:04;5.93;;;1.87;;
3597;SDS011;1813;52.016;8.714;2023-04-03T15:28:39;5.37;;;1.90;;
3597;SDS011;1813;52.016;8.714;2023-04-03T15:31:15;3.63;;;1.73;;
3597;SDS011;1813;52.016;8.714;2023-04-03T15:33:51;3.83;;;1.63;;
3597;SDS011;1813;52.016;8.714;2023-04-03T15:36:25;7.63;;;2.03;;
3597;SDS011;1813;52.016;8.714;2023-04-03T15:38:59;1.93;;;1.60;;
3597;SDS011;1813;52.016;8.714;2023-04-03T15:41:33;2.57;;;1.80;;
3597;SDS011;1813;52.016;8.714;2023-04-03T15:44:07;4.90;;;1.80;;
3597;SDS011;1813;52.016;8.714;2023-04-03T15:46:42;2.10;;;1.60;;
3597;SDS011;1813;52.016;8.714;2023-04-03T15:49:19;2.90;;;1.70;;
3597;SDS011;1813;52.016;8.714;2023-04-03T15:51:54;3.40;;;1.60;;
3597;SDS011;1813;52.016;8.714;2023-04-03T15:54:28;2.33;;;1.70;;
3597;SDS011;1813;52.016;8.714;2023-04-03T15:57:02;3.80;;;1.93;;
3597;SDS011;1813;52.016;8.714;2023-04-03T15:59:36;4.07;;;1.60;;
3597;SDS011;1813;52.016;8.714;2023-04-03T16:02:11;1.83;;;1.60;;
3597;SDS011;1813;52.016;8.714;2023-04-03T16:04:49;4.13;;;1.90;;
3597;SDS011;1813;52.016;8.714;2023-04-03T16:07:23;5.00;;;1.80;;
3597;SDS011;1813;52.016;8.714;2023-04-03T16:09:56;9.13;;;1.97;;
3597;SDS011;1813;52.016;8.714;2023-04-03T16:12:30;4.03;;;1.70;;
3597;SDS011;1813;52.016;8.714;2023-04-03T16:15:05;3.13;;;1.83;;
3597;SDS011;1813;52.016;8.714;2023-04-03T16:17:40;3.13;;;1.93;;
3597;SDS011;1813;52.016;8.714;2023-04-03T16:20:17;4.10;;;1.97;;
3597;SDS011;1813;52.016;8.714;2023-04-03T16:22:52;1.80;;;1.43;;
3597;SDS011;1813;52.016;8.714;2023-04-03T16:25:26;3.10;;;1.83;;
3597;SDS011;1813;52.016;8.714;2023-04-03T16:28:01;1.93;;;1.70;;
3597;SDS011;1813;52.016;8.714;2023-04-03T16:30:35;3.70;;;1.93;;
3597;SDS011;1813;52.016;8.714;2023-04-03T16:33:09;2.67;;;1.80;;
3597;SDS011;1813;52.016;8.714;2023-04-03T16:35:47;2.77;;;1.60;;
3597;SDS011;1813;52.016;8.714;2023-04-03T16:38:22;3.80;;;1.93;;
3597;SDS011;1813;52.016;8.714;2023-04-03T16:40:56;5.00;;;1.73;;
3597;SDS011;1813;52.016;8.714;2023-04-03T16:43:34;3.83;;;1.90;;
3597;SDS011;1813;52.016;8.714;2023-04-03T16:46:08;2.30;;;1.60;;